• Join FlightAware (Why Join?)
  • Login
  • US Flag 
02:48PM EST


 

Airport Tracker/Info


-or-


 

Live Flight TrackerFlight Track Log ✈ DAL3688 ✈ 12-Apr-2013 ✈ KMDT - KDTW

Flight Track Log - Related Links

Times and Time Zones

All times are in EDT time to prevent confusion due to time zone crossing. See the DAL3688 flight status page for this flight to view local times or setup timezone preferences in your user account.

Time Position Orientation Groundspeed Altitude Reporting Facility
EDT Latitude Longitude Course Direction KTS MPH feet Rate Location/Type
12:58PM 40.1503 -76.7347 247° West 158 182 3,400  Level New York Center
12:59PM 40.1278 -76.8089 248° West 155 178 5,200 1,980 Climbing New York Center
01:00PM 40.1192 -76.8950 263° West 215 247 7,400 2,340 Climbing New York Center
01:01PM 40.1167 -76.9842 268° West 253 291 10,000 1,620 Climbing New York Center
01:02PM 40.1111 -77.0869 266° West 261 300 10,800 1,320 Climbing New York Center
01:03PM 40.1717 -77.3814 241° Southwest  Level FlightAware Approximate
01:03PM 40.0744 -77.1867 244° Southwest 296 341 12,700  Level New York Center
01:04PM 40.1314 -77.4894 247° West  Level FlightAware Approximate
01:04PM 40.0558 -77.2989 258° West 307 353 14,400  Level New York Center
01:06PM 40.0547 -77.5072 270° West 319 367 16,400 1,200 Climbing Cleveland Center
01:07PM 40.0517 -77.6267 268° West 330 380 17,900 1,620 Climbing Cleveland Center
01:08PM 40.0506 -77.7406 269° West 330 380 19,700 1,260 Climbing Cleveland Center
01:09PM 40.0450 -77.8575 266° West 330 380 20,500 840 Climbing Cleveland Center
01:10PM 40.0414 -77.9742 268° West 330 380 21,400 840 Climbing Cleveland Center
01:11PM 40.0400 -78.0964 269° West 330 380 22,200 720 Climbing Cleveland Center
01:12PM 40.0364 -78.2186 268° West 330 380 22,900 600 Climbing Cleveland Center
01:13PM 40.0347 -78.3406 269° West 335 386 23,500 540 Climbing Cleveland Center
01:14PM 40.0331 -78.4708 269° West 347 399 24,000 540 Climbing Cleveland Center
01:15PM 40.0664 -78.5919 290° West 354 407 24,700 600 Climbing Cleveland Center
01:16PM 40.1039 -78.7183 291° West 354 407 25,300 600 Climbing Cleveland Center
01:17PM 40.1394 -78.8478 290° West 365 420 25,900 300 Climbing Cleveland Center
01:18PM 40.1767 -78.9744 291° West 365 420 26,000  Climbing Cleveland Center
01:19PM 40.2161 -79.1067 291° West 375 432 26,000  Level Cleveland Center
01:20PM 40.2531 -79.2392 290° West 380 437 26,000  Level Cleveland Center
01:21PM 40.2964 -79.3800 292° West 385 443 26,000  Level Cleveland Center
01:22PM 40.3331 -79.5128 290° West 385 443 26,000  Level Cleveland Center
01:23PM 40.3697 -79.6431 290° West 385 443 26,000  Level Cleveland Center
01:24PM 40.4061 -79.7733 290° West 385 443 26,000  Level Cleveland Center
01:25PM 40.4403 -79.8928 291° West 385 443 26,000  Level Cleveland Center
01:26PM 40.4744 -80.0208 289° West 380 437 26,000  Level Cleveland Center
01:27PM 40.5103 -80.1461 291° West 380 437 26,000  Level Cleveland Center
01:28PM 40.5461 -80.2825 289° West 385 443 26,000  Level Cleveland Center
01:29PM 40.5819 -80.4056 291° West 380 437 26,000  Level Cleveland Center
01:30PM 40.6194 -80.5503 289° West 380 437 26,000  Level Cleveland Center
01:31PM 40.6550 -80.6817 290° West 380 437 26,000  Level Cleveland Center
01:32PM 40.6986 -80.7914 298° West 380 437 26,000  Level Cleveland Center
01:33PM 40.7589 -80.9119 303° West 380 437 26,000  Level Cleveland Center
01:34PM 40.8167 -81.0331 302° West 394 453 26,000  Level Cleveland Center
01:35PM 40.8808 -81.1681 302° West 404 465 26,000  Level Cleveland Center
01:36PM 40.9344 -81.2786 303° West 404 465 26,000  Level Cleveland Center
01:37PM 40.9919 -81.4000 302° West 399 459 26,000 -420 Level Cleveland Center
01:38PM 41.0494 -81.5219 302° West 393 452 25,200 -900 Descending Cleveland Center
01:39PM 41.1067 -81.6442 302° West 393 452 24,200 -600 Descending Cleveland Center
01:40PM 41.1681 -81.7608 305° West 393 452 24,000 -120 Descending Cleveland Center
01:41PM 41.2250 -81.8806 302° West 393 452 24,000  Level Cleveland Center
01:42PM 41.2819 -81.9978 303° West 393 452 24,000 -660 Level Cleveland Center
01:43PM 41.3428 -82.1347 301° West 394 453 22,700 -1,440 Descending Cleveland Center
01:44PM 41.4058 -82.2469 307° West 389 448 21,200 -1,500 Descending Cleveland Center
01:45PM 41.4650 -82.3428 310° West 389 448 19,800 -1,860 Descending Cleveland Center
01:46PM 41.5297 -82.4525 308° West 379 436 17,600 -2,040 Descending Cleveland Center
01:47PM 41.5947 -82.5628 308° West 374 430 15,700 -2,040 Descending Cleveland Center
01:48PM 41.6353 -82.6308 309° West 374 430 14,500 -2,040 Descending Cleveland Center
01:48PM 41.6636 -82.6789 308° West 374 430 13,700 -1,920 Descending Cleveland Center
01:49PM 41.6958 -82.7356 307° West 364 419 12,600 -1,620 Descending Cleveland Center
01:49PM 41.7261 -82.7839 310° West 374 430 12,100 -540 Descending Cleveland Center
01:50PM 41.7689 -82.8356 318° Northwest 343 395 12,100 -120 Level Cleveland Center
01:50PM 41.7956 -82.8669 319° Northwest 352 405 12,000  Descending Cleveland Center
01:51PM 41.8403 -82.9189 319° Northwest 336 387 12,100 60 Climbing Cleveland Center
01:51PM 41.8647 -82.9503 316° Northwest 344 396 12,100  Level Cleveland Center
01:52PM 41.9094 -83.0022 319° Northwest 335 386 12,100  Level Cleveland Center
01:52PM 41.9339 -83.0339 316° Northwest 339 390 12,100  Level Cleveland Center
01:53PM 41.9806 -83.0889 319° Northwest 342 394 12,100  Level Cleveland Center
01:53PM 42.0069 -83.1206 318° Northwest 339 390 12,100 -720 Level Cleveland Center
01:54PM 42.0536 -83.1756 319° Northwest 351 404 11,400 -1,020 Descending Cleveland Center
01:54PM 42.0781 -83.2072 316° Northwest 339 390 11,100 -420 Descending Cleveland Center
01:55PM 42.1167 -83.2508 320° Northwest 295 339 11,000 -240 Descending Cleveland Center
01:55PM 42.1433 -83.2603 345° North 281 323 10,900 -960 Descending Cleveland Center
01:56PM 42.1831 -83.2350 25° Northeast 277 319 10,200 -1,440 Descending FAA TRACON SMA TRACON (SMA)
01:56PM 42.2031 -83.2197 30° Northeast 271 312 9,700 -1,380 Descending FAA TRACON SMA TRACON (SMA)
01:56PM 42.2231 -83.2044 29° Northeast 271 312 9,300 -1,320 Descending FAA TRACON SMA TRACON (SMA)
01:57PM 42.2483 -83.1858 29° Northeast 270 311 8,800 -1,500 Descending FAA TRACON SMA TRACON (SMA)
01:57PM 42.2683 -83.1714 28° Northeast 267 307 8,300 -1,380 Descending FAA TRACON SMA TRACON (SMA)
01:57PM 42.2886 -83.1569 28° Northeast 267 307 7,900 -1,200 Descending FAA TRACON SMA TRACON (SMA)
01:58PM 42.3133 -83.1389 28° Northeast 265 305 7,500 -1,380 Descending FAA TRACON SMA TRACON (SMA)
01:58PM 42.3328 -83.1253 27° Northeast 260 299 7,000 -1,500 Descending FAA TRACON SMA TRACON (SMA)
01:58PM 42.3525 -83.1114 27° Northeast 260 299 6,500 -1,260 Descending FAA TRACON SMA TRACON (SMA)
01:59PM 42.3761 -83.0942 28° Northeast 255 293 6,200 -660 Descending FAA TRACON SMA TRACON (SMA)
01:59PM 42.3942 -83.0803 30° Northeast 246 283 6,100 -180 Descending FAA TRACON SMA TRACON (SMA)
01:59PM 42.4097 -83.0678 31° Northeast 241 277 6,100  Level FAA TRACON SMA TRACON (SMA)
02:00PM 42.4339 -83.0500 28° Northeast 241 277 6,100  Level FAA TRACON SMA TRACON (SMA)
02:00PM 42.4519 -83.0361 30° Northeast 244 281 6,100 -180 Level FAA TRACON SMA TRACON (SMA)
02:00PM 42.4700 -83.0267 21° North 233 268 6,000  Descending FAA TRACON SMA TRACON (SMA)
02:01PM 42.4906 -83.0456 326° Northwest 221 254 6,100 120 Climbing FAA TRACON SMA TRACON (SMA)
02:01PM 42.4994 -83.0672 299° West 219 252 6,100  Level FAA TRACON SMA TRACON (SMA)
02:01PM 42.5036 -83.0961 281° West 212 244 6,100  Level FAA TRACON SMA TRACON (SMA)
02:02PM 42.4953 -83.1164 241° Southwest 211 243 6,100  Level FAA TRACON SMA TRACON (SMA)
02:02PM 42.4822 -83.1400 233° Southwest 213 245 6,100  Level FAA TRACON SMA TRACON (SMA)
02:02PM 42.4675 -83.1508 208° Southwest 205 236 6,100 -180 Level FAA TRACON SMA TRACON (SMA)
02:03PM 42.4503 -83.1631 208° Southwest 182 209 6,000 -300 Descending FAA TRACON SMA TRACON (SMA)
02:03PM 42.4342 -83.1753 209° Southwest 186 214 5,900 -780 Descending FAA TRACON SMA TRACON (SMA)
02:03PM 42.4208 -83.1853 209° Southwest 184 212 5,500 -1,200 Descending FAA TRACON SMA TRACON (SMA)
02:04PM 42.4053 -83.1969 209° Southwest 172 198 5,100 -1,080 Descending FAA TRACON SMA TRACON (SMA)
02:04PM 42.3931 -83.2058 208° Southwest 173 199 4,800 -1,080 Descending FAA TRACON SMA TRACON (SMA)
02:04PM 42.3767 -83.2178 208° Southwest 174 200 4,400 -1,080 Descending FAA TRACON SMA TRACON (SMA)
02:05PM 42.3644 -83.2272 210° Southwest 172 198 4,100 -900 Descending FAA TRACON SMA TRACON (SMA)